X Fechar
foto

X Fechar
foto
Clique e saiba mais
Clique e saiba mais
Clique e saiba mais
Clique e saiba mais
Clique e saiba mais
Clique e saiba mais
Clique e saiba mais


>Notícias > Últimas Notícias

Mundial de Motocross - Resultados do MXGP da Letônia - Kegums
Publicado em: 09/08/2020
Clique e saiba mais

GasGas conquista primeira vitória no Mundial de Motocross pelas mãos de Glenn Coldenhoff
Redação MotoX.com.br: Lucidio Arruda - Fotos: Bavo Swijgers / Infront Moto Racing

Glenn Coldenhoff escreveu hoje, 9 de agosto de 2020, seu nome nos livros do Mundial de Motocross. O holandês colocou a GASGAS no topo do pódio de uma etapa do campeonato pela primeira vez na história.


Glenn Coldenhoff

Coldenhoff liderou quase metade da primeira bateria até ser superado por Tim Gajser. O piloto da Honda apertou o ritmo até a bandeirada, recebida com pouco menos de dois segundos de vantagem.

A segunda bateria começou novamente com Coldenhoff na frente e Gajser em segundo. Tudo levava a crer num repeteco da primeira bateria com Gajser colocando cada vez mais pressão, mas Coldenhoff conseguiu se impor até o esloveno sofrer uma queda nas ondulações. Coldenhoff conseguiu respirar um pouco até que teve de voltar a torcer o cabo com a aproximação de Jeremy Seewer.

Romain Febvre fez uma etapa de estreia com a Kawasaki no Mundial bastante convincente, completando ambas as baterias na terceira colocação. O GP não foi dos melhores para Jeffrey Herlings e Antonio Cairoli, que sofreram com más largadas e quedas no início. Entretanto o holandês ainda salvou um quinto lugar geral e manteve a liderança do campeonato, enquanto Cairoli amarga uma desvantagem 44 pontos após apenas três etapas do campeonato.

Ao longo da semana publicaremos o artigo com todos os detalhes do retorno do Mundial de Motocross.

Vídeo Highlights



Resultados

P. # MXGP Bateria 1 País M V Diff Gap M.V. na V Speed
1 243 Gajser, Tim SLO Hon 17 34:47.632 0:00.000 1:57.900 1 54.3
2 259 Coldenhoff,Glenn NED GASGAS 17 0:01.912 0:01.912 1:57.880 2 54.3
3 3 Febvre, Romain FRA Kaw 17 0:04.757 0:02.845 1:58.085 2 54.2
4 84 Herlings,Jeffrey NED KTM 17 0:05.903 0:01.146 1:59.381 14 53.6
5 91 Seewer, Jeremy SUI Yam 17 0:07.037 0:01.134 1:59.248 11 53.7
6 27 Jasikonis,Arminas LTU Hus 17 0:11.673 0:04.636 1:58.796 3 53.9
7 222 Cairoli, Antonio ITA KTM 17 0:22.461 0:10.788 1:59.648 4 53.5
8 61 Prado, Jorge ESP KTM 17 0:24.847 0:02.386 1:58.964 2 53.8
9 21 Paulin, Gautier FRA Yam 17 0:41.423 0:16.576 2:00.312 7 53.2
10 89 Van Horebeek,Jeremy BEL Hon 17 0:47.902 0:06.479 2:00.043 6 53.3
11 10 Vlaanderen,Calvin NED Yam 17 0:52.494 0:04.592 1:59.836 6 53.4
12 25 Desalle, Clement BEL Kaw 17 0:58.720 0:06.226 1:59.512 1 53.6
13 747 Cervellin,Michele ITA Yam 17 1:07.383 0:08.663 2:01.223 4 52.8
14 6 Paturel, Benoit FRA Hon 17 1:10.535 0:03.152 2:01.586 5 52.7
15 911 Tixier, Jordi FRA KTM 17 1:16.468 0:05.933 2:01.644 13 52.6
16 4 Tonus, Arnaud SUI Yam 17 1:21.575 0:05.107 1:59.098 2 53.8
17 152 Petrov, Petar BUL KTM 17 1:22.919 0:01.344 2:03.078 4 52
18 189 Bogers, Brian NED KTM 17 1:34.077 0:11.158 2:01.562 3 52.7
19 43 Evans, Mitchell AUS Hon 17 1:36.078 0:02.001 2:02.399 3 52.3
20 116 Sabulis, Karlis LAT KTM 17 1:39.725 0:03.647 2:03.183 6 52
21 77 Lupino,Alessandro ITA Yam 17 1:48.934 0:09.209 2:03.392 3 51.9
22 7 Leok, Tanel EST Hus 17 2:17.738 0:28.804 2:04.540 6 51.4
23 391 Karro, Matiss LAT Hus 16 1 lap 1 lap 2:05.108 4 51.2
24 29 Jacobi, Henry GER Yam 16 1 lap 0:03.250 2:03.044 3 52
25 211 Lapucci,Nicholas ITA KTM 16 1 lap 0:05.996 2:04.615 1 51.4
26 811 Sterry, Adam GBR KTM 16 1 lap 0:04.986 2:02.951 3 52.1
27 777 Bobryshev,Evgeny RUS Hus 16 1 lap 0:16.711 2:04.547 1 51.4
28 64 Covington,Thomas USA Yam 16 1 lap 0:01.831 2:05.993 3 50.8
29 226 Koch, Tom GER KTM 16 1 lap 0:02.010 2:06.781 3 50.5
30 555 Guryev, Artem RUS Hon 16 1 lap 0:02.547 2:06.301 5 50.7
31 92 Guillod,Valentin SUI Hon 16 1 lap 1:10.665 2:05.297 6 51.1
32 128 Monticelli, Ivo ITA GASGAS 11 6 laps 5 laps 2:00.626 4 53.1
33 321 Bernardini,Samuele ITA Yam 8 9 laps 3 laps 2:05.454 4 51
34 24 Simpson, Shaun GBR KTM 6 11 laps 2 laps 2:02.415 2 52.3
35 297 Gole, Anton SWE Hon 5 12 laps 1 lap 2:03.324 1 51.9

P. # MXGP Bateria 2 País M V Diff Gap M.V. na V Speed
1 259 Coldenhoff,Glenn NED GASGAS 17 34:42.555 0:00.000 1:58.565 3 54
2 91 Seewer, Jeremy SUI Yam 17 0:01.225 0:01.225 1:59.191 3 53.7
3 3 Febvre, Romain FRA Kaw 17 0:18.203 0:16.978 1:59.399 10 53.6
4 84 Herlings,Jeffrey NED KTM 17 0:21.007 0:02.804 1:58.590 4 54
5 243 Gajser, Tim SLO Hon 17 0:23.205 0:02.198 1:59.240 1 53.7
6 27 Jasikonis,Arminas LTU Hus 17 0:24.274 0:01.069 1:59.345 3 53.6
7 61 Prado, Jorge ESP KTM 17 1:03.287 0:39.013 1:58.912 4 53.8
8 6 Paturel, Benoit FRA Hon 17 1:07.883 0:04.596 2:01.680 6 52.6
9 911 Tixier, Jordi FRA KTM 17 1:15.846 0:07.963 2:02.376 5 52.3
10 25 Desalle, Clement BEL Kaw 17 1:18.969 0:03.123 1:59.725 4 53.5
11 21 Paulin, Gautier FRA Yam 17 1:19.826 0:00.857 2:01.648 2 52.6
12 10 Vlaanderen,Calvin NED Yam 17 1:27.419 0:07.593 2:02.668 6 52.2
13 189 Bogers, Brian NED KTM 17 1:31.309 0:03.890 2:01.262 1 52.8
14 747 Cervellin,Michele ITA Yam 17 1:32.793 0:01.484 2:02.386 2 52.3
15 77 Lupino,Alessandro ITA Yam 17 1:33.114 0:00.321 2:03.680 2 51.8
16 29 Jacobi, Henry GER Yam 17 1:34.909 0:01.795 2:02.669 4 52.2
17 222 Cairoli, Antonio ITA KTM 17 1:34.987 0:00.078 2:02.528 16 52.2
18 43 Evans, Mitchell AUS Hon 17 1:51.409 0:16.422 2:02.788 5 52.1
19 116 Sabulis, Karlis LAT KTM 17 1:52.721 0:01.312 2:03.829 6 51.7
20 7 Leok, Tanel EST Hus 17 1:54.137 0:01.416 2:04.518 15 51.4
21 777 Bobryshev,Evgeny RUS Hus 16 1 lap 1 lap 2:02.913 6 52.1
22 391 Karro, Matiss LAT Hus 16 1 lap 0:16.474 2:03.966 3 51.6
23 811 Sterry, Adam GBR KTM 16 1 lap 0:07.997 2:05.121 4 51.2
24 211 Lapucci,Nicholas ITA KTM 16 1 lap 0:03.432 2:06.866 9 50.5
25 4 Tonus, Arnaud SUI Yam 16 1 lap 0:17.129 2:03.441 3 51.9
26 226 Koch, Tom GER KTM 16 1 lap 0:01.933 2:07.270 4 50.3
27 92 Guillod,Valentin SUI Hon 16 1 lap 0:06.380 2:05.405 3 51
28 321 Bernardini,Samuele ITA Yam 16 1 lap 0:03.389 2:06.988 2 50.4
29 64 Covington,Thomas USA Yam 16 1 lap 0:14.924 2:05.935 2 50.8
30 555 Guryev, Artem RUS Hon 16 1 lap 0:05.600 2:08.171 4 49.9
31 297 Gole, Anton SWE Hon 14 3 laps 2 laps 2:06.568 2 50.6
32 89 Van Horebeek,Jeremy BEL Hon 10 7 laps 4 laps 2:00.101 2 53.3
33 152 Petrov, Petar BUL KTM 10 7 laps 0:18.555 2:03.345 4 51.9
34 24 Simpson, Shaun GBR KTM 0 17 laps 10 laps 0:00.000   0
35 128 Monticelli, Ivo ITA GASGAS -1 18 laps 1 lap 0:00.000   0

MX2


MXGP da Letônia - Kegums

Via 1-2 o francês Tom Vialle conquistou o GP e ampliou de 5 para 22 pontos a vantagem sobre Jago Geerts, que apesar de uma primeira bateria cheia de erros, conseguiu superar Vialle na última volta da segunda bateria.

P. # MX2 Bateria 1 País M V Diff Gap M.V. na V Speed
1 28 Vialle, Tom FRA KTM 17 35:20.720 0:00.000 2:00.138 6 53.3
2 39 Van DeMoosdijk, Roan NED Kaw 17 0:06.879 0:06.879 2:00.886 3 53
3 70 Fernandez, Ruben ESP Yam 17 0:13.493 0:06.614 2:00.457 2 53.1
4 172 Boisrame, Mathys FRA Kaw 17 0:19.006 0:05.513 2:01.478 2 52.7
5 711 Hofer, Rene AUT KTM 17 0:21.761 0:02.755 2:01.577 7 52.7
6 919 Watson, Ben GBR Yam 17 0:24.001 0:02.240 2:01.584 14 52.7
7 959 Renaux, Maxime FRA Yam 17 0:37.867 0:13.866 2:02.400 3 52.3
8 161 Östlund, Alvin SWE Hon 17 0:38.066 0:00.199 2:02.272 9 52.4
9 11 Haarup, Mikkel DEN Kaw 17 0:39.837 0:01.771 2:03.106 6 52
10 303 Forato, Alberto ITA Hus 17 0:44.055 0:04.218 2:02.591 9 52.2
11 19 Olsen, ThomasKjer DEN Hus 17 0:50.947 0:06.892 2:02.178 4 52.4
12 105 Genot, Cyril BEL Yam 17 0:52.149 0:01.202 2:03.948 6 51.6
13 98 Vaessen, Bas NED KTM 17 0:56.426 0:04.277 2:03.082 6 52
14 199 Crawford, Nathan AUS Hon 17 0:56.960 0:00.534 2:02.505 15 52.3
15 14 Beaton, Jed AUS Hus 17 0:56.968 0:00.008 2:03.186 3 52
16 193 Geerts, Jago BEL Yam 17 1:15.706 0:18.738 2:00.875 1 53
17 118 Rubini, Stephen FRA Hon 17 1:33.927 0:18.221 2:03.687 5 51.8
18 75 Roosiorg, Hardi EST KTM 17 1:39.942 0:06.015 2:05.048 10 51.2
19 102 Sikyna, Richard SVK KTM 17 1:41.411 0:01.469 2:05.265 5 51.1
20 326 Gilbert, Josh GBR Hus 17 1:42.908 0:01.497 2:05.151 2 51.2
21 47 Malkiewicz,Bailey AUS Hon 17 1:51.015 0:08.107 2:04.615 5 51.4
22 44 Lesiardo, Morgan ITA KTM 17 1:54.910 0:03.895 2:06.623 6 50.6
23 224 Teresak, Jakub CZE KTM 17 1:58.385 0:03.475 2:07.139 8 50.4
24 253 Pancar, Jan SLO KTM 17 1:59.007 0:00.622 2:06.706 13 50.5
25 783 Toriani, Enzo FRA Hus 17 2:20.565 0:21.558 2:07.126 8 50.4
26 443 Vesterinen,Matias FIN KTM 16 1 lap 1 lap 2:05.698 8 50.9
27 313 Polak, Petr CZE Yam 16 1 lap 0:01.174 2:05.977 6 50.8
28 426 Mewse, Conrad GBR KTM 10 7 laps 6 laps 2:04.200 4 51.5
29 516 Laengenfelder,Simon GER GASGAS 8 9 laps 2 laps 2:03.667 6 51.8
30 275 Furbetta, Joakin ITA KTM 8 9 laps 0:27.850 2:08.758 2 49.7
31 83 Renkens, Nathan BEL KTM 7 10 laps 1 lap 2:05.697 2 50.9
32 142 Haavisto, Jere FIN Yam 5 12 laps 2 laps 2:08.433 4 49.8
33 258 Nermann,Johannes EST Hus 3 14 laps 2 laps 2:06.441 3 50.6
34 115 Dickinson,Ashton GBR KTM 0 17 laps 3 laps 0:00.000   0
35 240 Horgmo, Kevin NOR KTM -1 18 laps 1 lap 0:00.000   0

P. # MX2 Bateria 2 País M Time V Diff Gap M.V. na V Speed
1 193 Geerts, Jago BEL Yam 35:16.839 17 35:16.839 0:00.000 2:00.058 3 53.3
2 28 Vialle, Tom FRA KTM 35:21.109 17 0:04.270 0:04.270 1:59.705 2 53.5
3 172 Boisrame, Mathys FRA Kaw 35:24.376 17 0:07.537 0:03.267 2:00.211 2 53.3
4 39 Van DeMoosdijk, Roan NED Kaw 35:27.342 17 0:10.503 0:02.966 2:00.911 5 52.9
5 919 Watson, Ben GBR Yam 35:29.629 17 0:12.790 0:02.287 2:00.317 3 53.2
6 14 Beaton, Jed AUS Hus 35:50.334 17 0:33.495 0:20.705 2:02.254 2 52.4
7 70 Fernandez, Ruben ESP Yam 35:54.520 17 0:37.681 0:04.186 1:59.673 5 53.5
8 199 Crawford, Nathan AUS Hon 36:01.746 17 0:44.907 0:07.226 2:02.547 4 52.2
9 19 Olsen, ThomasKjer DEN Hus 36:06.186 17 0:49.347 0:04.440 2:02.450 2 52.3
10 959 Renaux, Maxime FRA Yam 36:11.846 17 0:55.007 0:05.660 2:02.417 1 52.3
11 303 Forato, Alberto ITA Hus 36:19.609 17 1:02.770 0:07.763 2:03.463 5 51.9
12 98 Vaessen, Bas NED KTM 36:26.972 17 1:10.133 0:07.363 2:03.610 6 51.8
13 161 Östlund, Alvin SWE Hon 36:29.418 17 1:12.579 0:02.446 2:03.896 4 51.7
14 105 Genot, Cyril BEL Yam 36:31.884 17 1:15.045 0:02.466 2:03.784 5 51.7
15 102 Sikyna, Richard SVK KTM 37:00.812 17 1:43.973 0:28.928 2:04.607 6 51.4
16 118 Rubini, Stephen FRA Hon 37:07.056 17 1:50.217 0:06.244 2:03.510 5 51.8
17 313 Polak, Petr CZE Yam 37:10.612 17 1:53.773 0:03.556 2:06.512 5 50.6
18 326 Gilbert, Josh GBR Hus 37:18.366 17 2:01.527 0:07.754 2:06.507 8 50.6
19 75 Roosiorg, Hardi EST KTM 37:29.692 17 2:12.853 0:11.326 2:06.423 11 50.6
20 253 Pancar, Jan SLO KTM 35:32.773 16 1 lap 1 lap 2:07.957 5 50
21 516 Laengenfelder,Simon GER GASGAS 35:40.241 16 1 lap 0:07.468 2:02.414 3 52.3
22 115 Dickinson,Ashton GBR KTM 35:43.679 16 1 lap 0:03.438 2:06.610 3 50.6
23 224 Teresak, Jakub CZE KTM 35:45.083 16 1 lap 0:01.404 2:08.212 7 49.9
24 443 Vesterinen,Matias FIN KTM 35:45.448 16 1 lap 0:00.365 2:06.481 7 50.6
25 11 Haarup, Mikkel DEN Kaw 36:05.690 16 1 lap 0:20.242 2:02.493 3 52.3
26 47 Malkiewicz,Bailey AUS Hon 37:22.342 16 1 lap 1:16.652 2:06.385 2 50.7
27 44 Lesiardo, Morgan ITA KTM 29:31.436 13 4 laps 3 laps 2:07.095 3 50.4
28 275 Furbetta, Joakin ITA KTM 20:26.782 9 8 laps 4 laps 2:06.802 3 50.5
29 142 Haavisto, Jere FIN Yam 15:47.109 7 10 laps 2 laps 2:04.875 2 51.3
30 258 Nermann,Johannes EST Hus 15:52.359 7 10 laps 0:05.250 2:07.297 3 50.3
31 426 Mewse, Conrad GBR KTM 8:17.145 3 14 laps 4 laps 2:08.431 3 49.8
32 783 Toriani, Enzo FRA Hus 5:12.188 2 15 laps 1 lap 2:07.985 2 50
33 83 Renkens, Nathan BEL KTM 0:53.008 0 17 laps 2 laps 0:00.000   0
34 711 Hofer, Rene AUT KTM 1:18.520 0 17 laps 0:25.512 0:00.000   0

Classificação da Etapa

P # MXGP País Moto Race1 Race2 Pts
1 259 Coldenhoff,Glenn NED GAS 22 25 47
2 243 Gajser,Tim SLO HON 25 16 41
3 3 Febvre,Romain FRA KAW 20 20 40
4 91 Seewer,Jeremy SUI YAM 16 22 38
5 84 Herlings,Jeffrey NED KTM 18 18 36
6 27 Jasikonis,Arminas LTU HUS 15 15 30
7 61 Prado,Jorge ESP KTM 13 14 27
8 21 Paulin,Gautier FRA YAM 12 10 22
9 6 Paturel,Benoit FRA HON 7 13 20
10 25 Desalle,Clement BEL KAW 9 11 20
11 10 Vlaanderen,Calvin NED YAM 10 9 19
12 911 Tixier,Jordi FRA KTM 6 12 18
13 222 Cairoli,Antonio ITA KTM 14 4 18
14 747 Cervellin,Michele ITA YAM 8 7 15
15 189 Bogers,Brian NED KTM 3 8 11
16 89 VanHorebeek, Jeremy BEL HON 11 0 11
17 77 Lupino,Alessandro ITA YAM 0 6 6
18 29 Jacobi,Henry GER YAM 0 5 5
19 43 Evans,Mitchell AUS HON 2 3 5
20 4 Tonus,Arnaud SUI YAM 5 0 5
21 152 Petrov,Petar BUL KTM 4 0 4
22 116 Sabulis,Karlis LAT KTM 1 2 3
23 7 Leok,Tanel EST HUS 0 1 1

P # MX2 País Moto Race1 Race2 Pts
1 28 Vialle,Tom FRA KTM 25 22 47
2 39 VanDe Moosdijk, Roan NED KAW 22 18 40
3 172 Boisrame,Mathys FRA KAW 18 20 38
4 70 Fernandez,Ruben ESP YAM 20 14 34
5 919 Watson,Ben GBR YAM 15 16 31
6 193 Geerts,Jago BEL YAM 5 25 30
7 959 Renaux,Maxime FRA YAM 14 11 25
8 19 Olsen,Thomas Kjer DEN HUS 10 12 22
9 14 Beaton,Jed AUS HUS 6 15 21
10 303 Forato,Alberto ITA HUS 11 10 21
11 161 Östlund,Alvin SWE HON 13 8 21
12 199 Crawford,Nathan AUS HON 7 13 20
13 98 Vaessen,Bas NED KTM 8 9 17
14 105 Genot,Cyril BEL YAM 9 7 16
15 711 Hofer,Rene AUT KTM 16 0 16
16 11 Haarup,Mikkel DEN KAW 12 0 12
17 118 Rubini,Stephen FRA HON 4 5 9
18 102 Sikyna,Richard SVK KTM 2 6 8
19 75 Roosiorg,Hardi EST KTM 3 2 5
20 313 Polak,Petr CZE YAM 0 4 4
21 326 Gilbert,Josh GBR HUS 1 3 4
22 253 Pancar,Jan SLO KTM 0 1 1


MXGP da Letônia - Kegums

Classificação Geral

MXGP

1. Jeffrey Herlings, 130
2. Tim Gajser, 126
3. Glenn Coldenhoff, 103
4. Antonio Cairoli, 86
5. Arminas Jasikonis,  83
6. Jeremy Seewer, 80
7. Gautier Paulin, 80
8. Clement Desalle, 80
9. Jorge Prado, 74
10. Jeremy van Horebeek, 50 

MX2
1. Tom Vialle, 134
2. Jago Geerts, 112
3. Jed Beaton, 95
4. Maxime Renaux, 86
5. Ben Watson, 79
6. Thomas Kjer Olsen, 73
7. Roan van de Moosdjik, 71
8. Mathys Boisrame, 70
9. Rene Rofer, 69
10. Mikkel Haarup, 64 

Vídeos Europeu EMX 250

Assista aos melhores momentos do Europeu EMX2, disputado no sábado. A segunda bateria teve um duelo emocionante até a bandeirada.












© 2000 - 2020 MotoX MX1 Internet